sensor_id;sensor_type;location;lat;lon;timestamp;temperature;humidity
13798;DHT22;6970;51.340;3.240;2024-01-06T00:02:13;8.10;99.90
13798;DHT22;6970;51.340;3.240;2024-01-06T00:04:43;8.10;99.90
13798;DHT22;6970;51.340;3.240;2024-01-06T00:07:11;8.10;99.90
13798;DHT22;6970;51.340;3.240;2024-01-06T00:09:43;8.10;99.90
13798;DHT22;6970;51.340;3.240;2024-01-06T00:12:14;8.10;99.90
13798;DHT22;6970;51.340;3.240;2024-01-06T00:14:44;8.10;99.90
13798;DHT22;6970;51.340;3.240;2024-01-06T00:17:16;8.10;99.90
13798;DHT22;6970;51.340;3.240;2024-01-06T00:19:43;8.10;99.90
13798;DHT22;6970;51.340;3.240;2024-01-06T00:22:10;8.00;99.90
13798;DHT22;6970;51.340;3.240;2024-01-06T00:24:37;8.10;99.90
13798;DHT22;6970;51.340;3.240;2024-01-06T00:27:07;8.10;99.90
13798;DHT22;6970;51.340;3.240;2024-01-06T00:29:35;8.10;99.90
13798;DHT22;6970;51.340;3.240;2024-01-06T00:32:02;8.10;99.90
13798;DHT22;6970;51.340;3.240;2024-01-06T00:34:32;8.10;99.90
13798;DHT22;6970;51.340;3.240;2024-01-06T00:37:03;8.10;99.90
13798;DHT22;6970;51.340;3.240;2024-01-06T00:39:32;8.10;99.90
13798;DHT22;6970;51.340;3.240;2024-01-06T00:42:02;8.10;99.90
13798;DHT22;6970;51.340;3.240;2024-01-06T00:44:29;8.00;99.90
13798;DHT22;6970;51.340;3.240;2024-01-06T00:46:59;8.10;99.90
13798;DHT22;6970;51.340;3.240;2024-01-06T00:49:26;8.00;99.90
13798;DHT22;6970;51.340;3.240;2024-01-06T00:51:57;8.00;99.90
13798;DHT22;6970;51.340;3.240;2024-01-06T00:54:27;8.00;99.90
13798;DHT22;6970;51.340;3.240;2024-01-06T00:56:54;8.00;99.90
13798;DHT22;6970;51.340;3.240;2024-01-06T00:59:27;8.10;99.90
13798;DHT22;6970;51.340;3.240;2024-01-06T01:01:54;8.10;99.90
13798;DHT22;6970;51.340;3.240;2024-01-06T01:04:24;8.10;99.90
13798;DHT22;6970;51.340;3.240;2024-01-06T01:06:54;8.00;99.90
13798;DHT22;6970;51.340;3.240;2024-01-06T01:09:21;8.00;99.90
13798;DHT22;6970;51.340;3.240;2024-01-06T01:11:50;8.00;99.90
13798;DHT22;6970;51.340;3.240;2024-01-06T01:14:20;8.00;99.90
13798;DHT22;6970;51.340;3.240;2024-01-06T01:16:49;8.00;99.90
13798;DHT22;6970;51.340;3.240;2024-01-06T01:19:19;8.10;99.90
13798;DHT22;6970;51.340;3.240;2024-01-06T01:21:48;8.10;99.90
13798;DHT22;6970;51.340;3.240;2024-01-06T01:24:17;8.10;99.90
13798;DHT22;6970;51.340;3.240;2024-01-06T01:26:45;8.20;99.90
13798;DHT22;6970;51.340;3.240;2024-01-06T01:29:12;8.10;99.90
13798;DHT22;6970;51.340;3.240;2024-01-06T01:31:43;8.10;99.90
13798;DHT22;6970;51.340;3.240;2024-01-06T01:34:16;8.00;99.90
13798;DHT22;6970;51.340;3.240;2024-01-06T01:36:46;8.00;99.90
13798;DHT22;6970;51.340;3.240;2024-01-06T01:39:17;8.00;99.90
13798;DHT22;6970;51.340;3.240;2024-01-06T01:41:47;8.00;99.90
13798;DHT22;6970;51.340;3.240;2024-01-06T01:44:14;8.00;99.90
13798;DHT22;6970;51.340;3.240;2024-01-06T01:46:47;8.00;99.90
13798;DHT22;6970;51.340;3.240;2024-01-06T01:49:16;8.10;99.90
13798;DHT22;6970;51.340;3.240;2024-01-06T01:51:44;8.00;99.90
13798;DHT22;6970;51.340;3.240;2024-01-06T01:54:18;8.00;99.90
13798;DHT22;6970;51.340;3.240;2024-01-06T01:56:47;8.00;99.90
13798;DHT22;6970;51.340;3.240;2024-01-06T01:59:18;8.00;99.90
13798;DHT22;6970;51.340;3.240;2024-01-06T02:01:52;8.10;99.90
13798;DHT22;6970;51.340;3.240;2024-01-06T02:04:19;8.10;99.90
13798;DHT22;6970;51.340;3.240;2024-01-06T02:06:49;8.10;99.90
13798;DHT22;6970;51.340;3.240;2024-01-06T02:09:19;8.10;99.90
13798;DHT22;6970;51.340;3.240;2024-01-06T02:11:49;8.10;99.90
13798;DHT22;6970;51.340;3.240;2024-01-06T02:14:20;8.20;99.90
13798;DHT22;6970;51.340;3.240;2024-01-06T02:16:50;8.10;99.90
13798;DHT22;6970;51.340;3.240;2024-01-06T02:19:17;8.10;99.90
13798;DHT22;6970;51.340;3.240;2024-01-06T02:21:54;8.10;99.90
13798;DHT22;6970;51.340;3.240;2024-01-06T02:24:23;8.10;99.90
13798;DHT22;6970;51.340;3.240;2024-01-06T02:26:51;8.10;99.90
13798;DHT22;6970;51.340;3.240;2024-01-06T02:29:18;8.10;99.90
13798;DHT22;6970;51.340;3.240;2024-01-06T02:31:47;8.10;99.90
13798;DHT22;6970;51.340;3.240;2024-01-06T02:34:17;8.10;99.90
13798;DHT22;6970;51.340;3.240;2024-01-06T02:36:48;8.00;99.90
13798;DHT22;6970;51.340;3.240;2024-01-06T02:39:17;8.00;99.90
13798;DHT22;6970;51.340;3.240;2024-01-06T02:41:47;8.00;99.90
13798;DHT22;6970;51.340;3.240;2024-01-06T02:44:17;8.00;99.90
13798;DHT22;6970;51.340;3.240;2024-01-06T02:46:48;8.10;99.90
13798;DHT22;6970;51.340;3.240;2024-01-06T02:49:18;8.00;99.90
13798;DHT22;6970;51.340;3.240;2024-01-06T02:51:46;8.10;99.90
13798;DHT22;6970;51.340;3.240;2024-01-06T02:54:14;8.10;99.90
13798;DHT22;6970;51.340;3.240;2024-01-06T02:56:42;8.10;99.90
13798;DHT22;6970;51.340;3.240;2024-01-06T02:59:10;8.10;99.90
13798;DHT22;6970;51.340;3.240;2024-01-06T03:01:37;8.10;99.90
13798;DHT22;6970;51.340;3.240;2024-01-06T03:04:07;8.10;99.90
13798;DHT22;6970;51.340;3.240;2024-01-06T03:06:36;8.10;99.90
13798;DHT22;6970;51.340;3.240;2024-01-06T03:09:05;8.10;99.90
13798;DHT22;6970;51.340;3.240;2024-01-06T03:11:36;8.10;99.90
13798;DHT22;6970;51.340;3.240;2024-01-06T03:14:04;8.10;99.90
13798;DHT22;6970;51.340;3.240;2024-01-06T03:16:31;8.00;99.90
13798;DHT22;6970;51.340;3.240;2024-01-06T03:18:58;8.00;99.90
13798;DHT22;6970;51.340;3.240;2024-01-06T03:21:28;8.00;99.90
13798;DHT22;6970;51.340;3.240;2024-01-06T03:23:55;8.00;99.90
13798;DHT22;6970;51.340;3.240;2024-01-06T03:26:25;8.00;99.90
13798;DHT22;6970;51.340;3.240;2024-01-06T03:28:56;8.00;99.90
13798;DHT22;6970;51.340;3.240;2024-01-06T03:31:24;8.00;99.90
13798;DHT22;6970;51.340;3.240;2024-01-06T03:33:55;8.00;99.90
13798;DHT22;6970;51.340;3.240;2024-01-06T03:36:23;8.00;99.90
13798;DHT22;6970;51.340;3.240;2024-01-06T03:38:51;7.90;99.90
13798;DHT22;6970;51.340;3.240;2024-01-06T03:41:21;8.00;99.90
13798;DHT22;6970;51.340;3.240;2024-01-06T03:43:54;7.90;99.90
13798;DHT22;6970;51.340;3.240;2024-01-06T03:46:23;7.90;99.90
13798;DHT22;6970;51.340;3.240;2024-01-06T03:48:50;7.90;99.90
13798;DHT22;6970;51.340;3.240;2024-01-06T03:51:19;7.80;99.90
13798;DHT22;6970;51.340;3.240;2024-01-06T03:53:47;7.80;99.90
13798;DHT22;6970;51.340;3.240;2024-01-06T03:56:16;7.80;99.90
13798;DHT22;6970;51.340;3.240;2024-01-06T03:58:44;7.80;99.90
13798;DHT22;6970;51.340;3.240;2024-01-06T04:01:11;7.90;99.90
13798;DHT22;6970;51.340;3.240;2024-01-06T04:03:38;7.90;99.90
13798;DHT22;6970;51.340;3.240;2024-01-06T04:06:10;7.80;99.90
13798;DHT22;6970;51.340;3.240;2024-01-06T04:08:39;7.80;99.90
13798;DHT22;6970;51.340;3.240;2024-01-06T04:11:09;7.80;99.90
13798;DHT22;6970;51.340;3.240;2024-01-06T04:13:39;7.80;99.90
13798;DHT22;6970;51.340;3.240;2024-01-06T04:16:09;7.80;99.90
13798;DHT22;6970;51.340;3.240;2024-01-06T04:18:39;7.80;99.90
13798;DHT22;6970;51.340;3.240;2024-01-06T04:21:06;7.80;99.90
13798;DHT22;6970;51.340;3.240;2024-01-06T04:23:37;7.80;99.90
13798;DHT22;6970;51.340;3.240;2024-01-06T04:26:08;7.80;99.90
13798;DHT22;6970;51.340;3.240;2024-01-06T04:28:38;7.80;99.90
13798;DHT22;6970;51.340;3.240;2024-01-06T04:31:09;7.80;99.90
13798;DHT22;6970;51.340;3.240;2024-01-06T04:33:41;7.90;99.90
13798;DHT22;6970;51.340;3.240;2024-01-06T04:36:08;7.90;99.90
13798;DHT22;6970;51.340;3.240;2024-01-06T04:38:39;7.90;99.90
13798;DHT22;6970;51.340;3.240;2024-01-06T04:41:07;7.90;99.90
13798;DHT22;6970;51.340;3.240;2024-01-06T04:43:37;7.90;99.90
13798;DHT22;6970;51.340;3.240;2024-01-06T04:46:04;7.80;99.90
13798;DHT22;6970;51.340;3.240;2024-01-06T04:48:31;7.80;99.90
13798;DHT22;6970;51.340;3.240;2024-01-06T04:50:59;7.70;99.90
13798;DHT22;6970;51.340;3.240;2024-01-06T04:53:29;7.80;99.90
13798;DHT22;6970;51.340;3.240;2024-01-06T04:55:58;7.80;99.90
13798;DHT22;6970;51.340;3.240;2024-01-06T04:58:26;7.80;99.90
13798;DHT22;6970;51.340;3.240;2024-01-06T05:00:53;7.80;99.90
13798;DHT22;6970;51.340;3.240;2024-01-06T05:03:28;7.80;99.90
13798;DHT22;6970;51.340;3.240;2024-01-06T05:06:03;7.80;99.90
13798;DHT22;6970;51.340;3.240;2024-01-06T05:08:31;7.70;99.90
13798;DHT22;6970;51.340;3.240;2024-01-06T05:11:03;7.80;99.90
13798;DHT22;6970;51.340;3.240;2024-01-06T05:13:32;7.80;99.90
13798;DHT22;6970;51.340;3.240;2024-01-06T05:16:02;7.80;99.90
13798;DHT22;6970;51.340;3.240;2024-01-06T05:18:32;7.80;99.90
13798;DHT22;6970;51.340;3.240;2024-01-06T05:21:03;7.80;99.90
13798;DHT22;6970;51.340;3.240;2024-01-06T05:23:31;7.90;99.90
13798;DHT22;6970;51.340;3.240;2024-01-06T05:26:01;7.90;99.90
13798;DHT22;6970;51.340;3.240;2024-01-06T05:28:34;7.90;99.90
13798;DHT22;6970;51.340;3.240;2024-01-06T05:31:01;7.90;99.90
13798;DHT22;6970;51.340;3.240;2024-01-06T05:33:29;7.80;99.90
13798;DHT22;6970;51.340;3.240;2024-01-06T05:35:57;7.80;99.90
13798;DHT22;6970;51.340;3.240;2024-01-06T05:38:28;7.80;99.90
13798;DHT22;6970;51.340;3.240;2024-01-06T05:40:55;7.70;99.90
13798;DHT22;6970;51.340;3.240;2024-01-06T05:43:26;7.70;99.90
13798;DHT22;6970;51.340;3.240;2024-01-06T05:45:56;7.70;99.90
13798;DHT22;6970;51.340;3.240;2024-01-06T05:48:26;7.70;99.90
13798;DHT22;6970;51.340;3.240;2024-01-06T05:50:57;7.80;99.90
13798;DHT22;6970;51.340;3.240;2024-01-06T05:53:27;7.70;99.90
13798;DHT22;6970;51.340;3.240;2024-01-06T05:55:56;7.80;99.90
13798;DHT22;6970;51.340;3.240;2024-01-06T05:58:26;7.80;99.90
13798;DHT22;6970;51.340;3.240;2024-01-06T06:00:54;7.80;99.90
13798;DHT22;6970;51.340;3.240;2024-01-06T06:03:21;7.80;99.90
13798;DHT22;6970;51.340;3.240;2024-01-06T06:05:52;7.80;99.90
13798;DHT22;6970;51.340;3.240;2024-01-06T06:08:22;7.80;99.90
13798;DHT22;6970;51.340;3.240;2024-01-06T06:10:51;7.80;99.90
13798;DHT22;6970;51.340;3.240;2024-01-06T06:13:35;7.80;99.90
13798;DHT22;6970;51.340;3.240;2024-01-06T06:16:02;7.70;99.90
13798;DHT22;6970;51.340;3.240;2024-01-06T06:18:29;7.70;99.90
13798;DHT22;6970;51.340;3.240;2024-01-06T06:20:59;7.70;99.90
13798;DHT22;6970;51.340;3.240;2024-01-06T06:23:27;7.70;99.90
13798;DHT22;6970;51.340;3.240;2024-01-06T06:25:56;7.60;99.90
13798;DHT22;6970;51.340;3.240;2024-01-06T06:28:25;7.60;99.90
13798;DHT22;6970;51.340;3.240;2024-01-06T06:30:54;7.50;99.90
13798;DHT22;6970;51.340;3.240;2024-01-06T06:33:24;7.50;99.90
13798;DHT22;6970;51.340;3.240;2024-01-06T06:35:52;7.50;99.90
13798;DHT22;6970;51.340;3.240;2024-01-06T06:38:22;7.50;99.90
13798;DHT22;6970;51.340;3.240;2024-01-06T06:40:53;7.60;99.90
13798;DHT22;6970;51.340;3.240;2024-01-06T06:43:20;7.70;99.90
13798;DHT22;6970;51.340;3.240;2024-01-06T06:45:47;7.70;99.90
13798;DHT22;6970;51.340;3.240;2024-01-06T06:48:14;7.70;99.90
13798;DHT22;6970;51.340;3.240;2024-01-06T06:50:45;7.70;99.90
13798;DHT22;6970;51.340;3.240;2024-01-06T06:53:14;7.70;99.90
13798;DHT22;6970;51.340;3.240;2024-01-06T06:55:44;7.70;99.90
13798;DHT22;6970;51.340;3.240;2024-01-06T06:58:13;7.70;99.90
13798;DHT22;6970;51.340;3.240;2024-01-06T07:00:40;7.70;99.90
13798;DHT22;6970;51.340;3.240;2024-01-06T07:03:11;7.70;99.90
13798;DHT22;6970;51.340;3.240;2024-01-06T07:05:44;7.70;99.90
13798;DHT22;6970;51.340;3.240;2024-01-06T07:08:13;7.70;99.90
13798;DHT22;6970;51.340;3.240;2024-01-06T07:10:45;7.70;99.90
13798;DHT22;6970;51.340;3.240;2024-01-06T07:13:14;7.60;99.90
13798;DHT22;6970;51.340;3.240;2024-01-06T07:15:41;7.70;99.90
13798;DHT22;6970;51.340;3.240;2024-01-06T07:18:09;7.70;99.90
13798;DHT22;6970;51.340;3.240;2024-01-06T07:20:39;7.70;99.90
13798;DHT22;6970;51.340;3.240;2024-01-06T07:23:06;7.70;99.90
13798;DHT22;6970;51.340;3.240;2024-01-06T07:25:36;7.70;99.90
13798;DHT22;6970;51.340;3.240;2024-01-06T07:28:09;7.70;99.90
13798;DHT22;6970;51.340;3.240;2024-01-06T07:30:36;7.60;99.90
13798;DHT22;6970;51.340;3.240;2024-01-06T07:33:04;7.60;99.90
13798;DHT22;6970;51.340;3.240;2024-01-06T07:35:34;7.60;99.90
13798;DHT22;6970;51.340;3.240;2024-01-06T07:38:02;7.50;99.90
13798;DHT22;6970;51.340;3.240;2024-01-06T07:40:32;7.50;99.90
13798;DHT22;6970;51.340;3.240;2024-01-06T07:43:01;7.40;99.90
13798;DHT22;6970;51.340;3.240;2024-01-06T07:45:32;7.40;99.90
13798;DHT22;6970;51.340;3.240;2024-01-06T07:47:59;7.40;99.90
13798;DHT22;6970;51.340;3.240;2024-01-06T07:50:30;7.40;99.90
13798;DHT22;6970;51.340;3.240;2024-01-06T07:53:00;7.40;99.90
13798;DHT22;6970;51.340;3.240;2024-01-06T07:55:30;7.40;99.90
13798;DHT22;6970;51.340;3.240;2024-01-06T07:57:59;7.40;99.90
13798;DHT22;6970;51.340;3.240;2024-01-06T08:00:26;7.40;99.90
13798;DHT22;6970;51.340;3.240;2024-01-06T08:02:56;7.40;99.90
13798;DHT22;6970;51.340;3.240;2024-01-06T08:05:24;7.50;99.90
13798;DHT22;6970;51.340;3.240;2024-01-06T08:07:53;7.50;99.90
13798;DHT22;6970;51.340;3.240;2024-01-06T08:10:22;7.50;99.90
13798;DHT22;6970;51.340;3.240;2024-01-06T08:12:50;7.50;99.90
13798;DHT22;6970;51.340;3.240;2024-01-06T08:15:21;7.50;99.90
13798;DHT22;6970;51.340;3.240;2024-01-06T08:17:51;7.50;99.90
13798;DHT22;6970;51.340;3.240;2024-01-06T08:20:21;7.40;99.90
13798;DHT22;6970;51.340;3.240;2024-01-06T08:22:49;7.40;99.90
13798;DHT22;6970;51.340;3.240;2024-01-06T08:25:17;7.40;99.90
13798;DHT22;6970;51.340;3.240;2024-01-06T08:27:44;7.40;99.90
13798;DHT22;6970;51.340;3.240;2024-01-06T08:30:13;7.40;99.90
13798;DHT22;6970;51.340;3.240;2024-01-06T08:32:40;7.40;99.90
13798;DHT22;6970;51.340;3.240;2024-01-06T08:35:09;7.30;99.90
13798;DHT22;6970;51.340;3.240;2024-01-06T08:37:38;7.30;99.90
13798;DHT22;6970;51.340;3.240;2024-01-06T08:40:09;7.30;99.90
13798;DHT22;6970;51.340;3.240;2024-01-06T08:42:36;7.30;99.90
13798;DHT22;6970;51.340;3.240;2024-01-06T08:45:05;7.30;99.90
13798;DHT22;6970;51.340;3.240;2024-01-06T08:47:32;7.30;99.90
13798;DHT22;6970;51.340;3.240;2024-01-06T08:49:59;7.30;99.90
13798;DHT22;6970;51.340;3.240;2024-01-06T08:52:33;7.30;99.90
13798;DHT22;6970;51.340;3.240;2024-01-06T08:55:03;7.30;99.90
13798;DHT22;6970;51.340;3.240;2024-01-06T08:57:33;7.20;99.90
13798;DHT22;6970;51.340;3.240;2024-01-06T09:00:02;7.20;99.90
13798;DHT22;6970;51.340;3.240;2024-01-06T09:02:33;7.20;99.90
13798;DHT22;6970;51.340;3.240;2024-01-06T09:05:03;7.30;99.90
13798;DHT22;6970;51.340;3.240;2024-01-06T09:07:31;7.20;99.90
13798;DHT22;6970;51.340;3.240;2024-01-06T09:10:01;7.20;99.90
13798;DHT22;6970;51.340;3.240;2024-01-06T09:12:31;7.20;99.90
13798;DHT22;6970;51.340;3.240;2024-01-06T09:15:00;7.20;99.90
13798;DHT22;6970;51.340;3.240;2024-01-06T09:17:27;7.20;99.90
13798;DHT22;6970;51.340;3.240;2024-01-06T09:19:56;7.30;99.90
13798;DHT22;6970;51.340;3.240;2024-01-06T09:22:27;7.30;99.90
13798;DHT22;6970;51.340;3.240;2024-01-06T09:24:54;7.40;99.90
13798;DHT22;6970;51.340;3.240;2024-01-06T09:27:21;7.40;99.90
13798;DHT22;6970;51.340;3.240;2024-01-06T09:29:52;7.40;99.90
13798;DHT22;6970;51.340;3.240;2024-01-06T09:32:20;7.30;99.90
13798;DHT22;6970;51.340;3.240;2024-01-06T09:34:52;7.30;99.90
13798;DHT22;6970;51.340;3.240;2024-01-06T09:37:21;7.30;99.90
13798;DHT22;6970;51.340;3.240;2024-01-06T09:39:51;7.30;99.90
13798;DHT22;6970;51.340;3.240;2024-01-06T09:42:19;7.30;99.90
13798;DHT22;6970;51.340;3.240;2024-01-06T09:44:52;7.30;99.90
13798;DHT22;6970;51.340;3.240;2024-01-06T09:47:23;7.40;99.90
13798;DHT22;6970;51.340;3.240;2024-01-06T09:49:51;7.40;99.90
13798;DHT22;6970;51.340;3.240;2024-01-06T09:52:26;7.40;99.90
13798;DHT22;6970;51.340;3.240;2024-01-06T09:54:54;7.40;99.90
13798;DHT22;6970;51.340;3.240;2024-01-06T09:57:24;7.50;99.90
13798;DHT22;6970;51.340;3.240;2024-01-06T09:59:54;7.50;99.90
13798;DHT22;6970;51.340;3.240;2024-01-06T10:02:23;7.50;99.90
13798;DHT22;6970;51.340;3.240;2024-01-06T10:04:51;7.50;99.90
13798;DHT22;6970;51.340;3.240;2024-01-06T10:07:22;7.60;99.90
13798;DHT22;6970;51.340;3.240;2024-01-06T10:09:49;7.60;99.90
13798;DHT22;6970;51.340;3.240;2024-01-06T10:12:16;7.60;99.90
13798;DHT22;6970;51.340;3.240;2024-01-06T10:14:44;7.70;99.90
13798;DHT22;6970;51.340;3.240;2024-01-06T10:17:13;7.70;99.90
13798;DHT22;6970;51.340;3.240;2024-01-06T10:19:47;7.70;99.90
13798;DHT22;6970;51.340;3.240;2024-01-06T10:22:21;7.70;99.90
13798;DHT22;6970;51.340;3.240;2024-01-06T10:24:50;7.80;99.90
13798;DHT22;6970;51.340;3.240;2024-01-06T10:27:18;7.70;99.90
13798;DHT22;6970;51.340;3.240;2024-01-06T10:29:45;7.80;99.90
13798;DHT22;6970;51.340;3.240;2024-01-06T10:32:13;7.80;99.90
13798;DHT22;6970;51.340;3.240;2024-01-06T10:34:40;7.80;99.90
13798;DHT22;6970;51.340;3.240;2024-01-06T10:37:09;7.80;99.90
13798;DHT22;6970;51.340;3.240;2024-01-06T10:39:40;7.80;99.90
13798;DHT22;6970;51.340;3.240;2024-01-06T10:42:07;7.80;99.90
13798;DHT22;6970;51.340;3.240;2024-01-06T10:44:39;7.80;99.90
13798;DHT22;6970;51.340;3.240;2024-01-06T10:47:13;7.80;99.90
13798;DHT22;6970;51.340;3.240;2024-01-06T10:49:41;7.70;99.90
13798;DHT22;6970;51.340;3.240;2024-01-06T10:52:14;7.80;99.90
13798;DHT22;6970;51.340;3.240;2024-01-06T10:54:43;7.80;99.90
13798;DHT22;6970;51.340;3.240;2024-01-06T10:57:12;7.80;99.90
13798;DHT22;6970;51.340;3.240;2024-01-06T10:59:41;7.80;99.90
13798;DHT22;6970;51.340;3.240;2024-01-06T11:02:09;7.80;99.90
13798;DHT22;6970;51.340;3.240;2024-01-06T11:04:39;7.80;99.90
13798;DHT22;6970;51.340;3.240;2024-01-06T11:07:08;7.90;99.90
13798;DHT22;6970;51.340;3.240;2024-01-06T11:09:39;7.90;99.90
13798;DHT22;6970;51.340;3.240;2024-01-06T11:12:11;7.90;99.90
13798;DHT22;6970;51.340;3.240;2024-01-06T11:14:41;8.00;99.90
13798;DHT22;6970;51.340;3.240;2024-01-06T11:17:12;8.10;99.90
13798;DHT22;6970;51.340;3.240;2024-01-06T11:22:28;8.20;99.90
13798;DHT22;6970;51.340;3.240;2024-01-06T11:25:05;8.10;99.90
13798;DHT22;6970;51.340;3.240;2024-01-06T11:27:33;8.10;99.90
13798;DHT22;6970;51.340;3.240;2024-01-06T11:30:03;8.00;99.90
13798;DHT22;6970;51.340;3.240;2024-01-06T11:32:47;8.00;99.90
13798;DHT22;6970;51.340;3.240;2024-01-06T11:35:17;8.00;99.90
13798;DHT22;6970;51.340;3.240;2024-01-06T11:40:35;8.00;99.90
13798;DHT22;6970;51.340;3.240;2024-01-06T11:43:12;8.00;99.90
13798;DHT22;6970;51.340;3.240;2024-01-06T11:45:41;8.10;99.90
13798;DHT22;6970;51.340;3.240;2024-01-06T11:48:12;8.20;99.90
13798;DHT22;6970;51.340;3.240;2024-01-06T11:50:40;8.40;99.90
13798;DHT22;6970;51.340;3.240;2024-01-06T11:53:08;8.50;99.90
13798;DHT22;6970;51.340;3.240;2024-01-06T11:55:41;8.40;99.90
13798;DHT22;6970;51.340;3.240;2024-01-06T11:58:19;8.30;99.90
13798;DHT22;6970;51.340;3.240;2024-01-06T12:00:55;8.20;99.90
13798;DHT22;6970;51.340;3.240;2024-01-06T12:03:26;8.20;99.90
13798;DHT22;6970;51.340;3.240;2024-01-06T12:06:03;8.20;99.90
13798;DHT22;6970;51.340;3.240;2024-01-06T12:08:32;8.20;99.90
13798;DHT22;6970;51.340;3.240;2024-01-06T12:11:05;8.10;99.90
13798;DHT22;6970;51.340;3.240;2024-01-06T12:13:32;8.00;99.90
13798;DHT22;6970;51.340;3.240;2024-01-06T12:16:03;8.00;99.90
13798;DHT22;6970;51.340;3.240;2024-01-06T12:18:31;8.00;99.90
13798;DHT22;6970;51.340;3.240;2024-01-06T12:21:00;7.90;99.90
13798;DHT22;6970;51.340;3.240;2024-01-06T12:23:31;7.90;99.90
13798;DHT22;6970;51.340;3.240;2024-01-06T12:26:01;7.90;99.90
13798;DHT22;6970;51.340;3.240;2024-01-06T12:28:28;7.90;99.90
13798;DHT22;6970;51.340;3.240;2024-01-06T12:30:59;7.90;99.90
13798;DHT22;6970;51.340;3.240;2024-01-06T12:33:27;8.00;99.90
13798;DHT22;6970;51.340;3.240;2024-01-06T12:36:00;7.90;99.90
13798;DHT22;6970;51.340;3.240;2024-01-06T12:38:42;7.90;99.90
13798;DHT22;6970;51.340;3.240;2024-01-06T12:41:12;7.90;99.90
13798;DHT22;6970;51.340;3.240;2024-01-06T12:43:45;7.90;99.90
13798;DHT22;6970;51.340;3.240;2024-01-06T12:46:16;7.90;99.90
13798;DHT22;6970;51.340;3.240;2024-01-06T12:48:46;8.00;99.90
13798;DHT22;6970;51.340;3.240;2024-01-06T12:51:15;8.00;99.90
13798;DHT22;6970;51.340;3.240;2024-01-06T12:53:45;7.90;99.90
13798;DHT22;6970;51.340;3.240;2024-01-06T12:56:12;7.80;99.90
13798;DHT22;6970;51.340;3.240;2024-01-06T12:58:42;7.80;99.90
13798;DHT22;6970;51.340;3.240;2024-01-06T13:01:13;7.70;99.90
13798;DHT22;6970;51.340;3.240;2024-01-06T13:03:43;7.70;99.90
13798;DHT22;6970;51.340;3.240;2024-01-06T13:06:11;7.70;99.90
13798;DHT22;6970;51.340;3.240;2024-01-06T13:08:38;7.70;99.90
13798;DHT22;6970;51.340;3.240;2024-01-06T13:11:08;7.80;99.90
13798;DHT22;6970;51.340;3.240;2024-01-06T13:13:36;7.80;99.90
13798;DHT22;6970;51.340;3.240;2024-01-06T13:16:05;7.80;99.90
13798;DHT22;6970;51.340;3.240;2024-01-06T13:18:39;7.80;99.90
13798;DHT22;6970;51.340;3.240;2024-01-06T13:21:07;7.70;99.90
13798;DHT22;6970;51.340;3.240;2024-01-06T13:23:35;7.80;99.90
13798;DHT22;6970;51.340;3.240;2024-01-06T13:26:03;7.90;99.90
13798;DHT22;6970;51.340;3.240;2024-01-06T13:28:33;7.90;99.90
13798;DHT22;6970;51.340;3.240;2024-01-06T13:31:03;7.90;99.90
13798;DHT22;6970;51.340;3.240;2024-01-06T13:33:30;7.90;99.90
13798;DHT22;6970;51.340;3.240;2024-01-06T13:35:59;7.90;99.90
13798;DHT22;6970;51.340;3.240;2024-01-06T13:38:27;7.90;99.90
13798;DHT22;6970;51.340;3.240;2024-01-06T13:40:54;7.90;99.90
13798;DHT22;6970;51.340;3.240;2024-01-06T13:43:24;7.90;99.90
13798;DHT22;6970;51.340;3.240;2024-01-06T13:45:52;8.00;99.90
13798;DHT22;6970;51.340;3.240;2024-01-06T13:48:20;7.90;99.90
13798;DHT22;6970;51.340;3.240;2024-01-06T13:50:48;7.90;99.90
13798;DHT22;6970;51.340;3.240;2024-01-06T13:53:21;7.90;99.90
13798;DHT22;6970;51.340;3.240;2024-01-06T13:55:51;7.90;99.90
13798;DHT22;6970;51.340;3.240;2024-01-06T13:58:20;7.80;99.90
13798;DHT22;6970;51.340;3.240;2024-01-06T14:00:48;7.70;99.90
13798;DHT22;6970;51.340;3.240;2024-01-06T14:03:19;7.60;99.90
13798;DHT22;6970;51.340;3.240;2024-01-06T14:05:48;7.60;99.90
13798;DHT22;6970;51.340;3.240;2024-01-06T14:08:17;7.50;99.90
13798;DHT22;6970;51.340;3.240;2024-01-06T14:10:45;7.50;99.90
13798;DHT22;6970;51.340;3.240;2024-01-06T14:13:12;7.50;99.90
13798;DHT22;6970;51.340;3.240;2024-01-06T14:15:40;7.50;99.90
13798;DHT22;6970;51.340;3.240;2024-01-06T14:18:08;7.50;99.90
13798;DHT22;6970;51.340;3.240;2024-01-06T14:20:37;7.50;99.90
13798;DHT22;6970;51.340;3.240;2024-01-06T14:23:06;7.50;99.90
13798;DHT22;6970;51.340;3.240;2024-01-06T14:25:35;7.50;99.90
13798;DHT22;6970;51.340;3.240;2024-01-06T14:28:04;7.50;99.90
13798;DHT22;6970;51.340;3.240;2024-01-06T14:30:35;7.40;99.90
13798;DHT22;6970;51.340;3.240;2024-01-06T14:33:05;7.30;99.90
13798;DHT22;6970;51.340;3.240;2024-01-06T14:35:43;7.30;99.90
13798;DHT22;6970;51.340;3.240;2024-01-06T14:38:12;7.20;99.90
13798;DHT22;6970;51.340;3.240;2024-01-06T14:40:42;7.20;99.90
13798;DHT22;6970;51.340;3.240;2024-01-06T14:43:10;7.20;99.90
13798;DHT22;6970;51.340;3.240;2024-01-06T14:45:38;7.20;99.90
13798;DHT22;6970;51.340;3.240;2024-01-06T14:48:12;7.20;99.90
13798;DHT22;6970;51.340;3.240;2024-01-06T14:50:39;7.20;99.90
13798;DHT22;6970;51.340;3.240;2024-01-06T14:53:12;7.20;99.90
13798;DHT22;6970;51.340;3.240;2024-01-06T14:55:42;7.20;99.90
13798;DHT22;6970;51.340;3.240;2024-01-06T14:58:10;7.20;99.90
13798;DHT22;6970;51.340;3.240;2024-01-06T15:00:37;7.20;99.90
13798;DHT22;6970;51.340;3.240;2024-01-06T15:03:08;7.20;99.90
13798;DHT22;6970;51.340;3.240;2024-01-06T15:05:38;7.20;99.90
13798;DHT22;6970;51.340;3.240;2024-01-06T15:08:06;7.20;99.90
13798;DHT22;6970;51.340;3.240;2024-01-06T15:10:36;7.20;99.90
13798;DHT22;6970;51.340;3.240;2024-01-06T15:13:09;7.20;99.90
13798;DHT22;6970;51.340;3.240;2024-01-06T15:15:36;7.20;99.90
13798;DHT22;6970;51.340;3.240;2024-01-06T15:18:04;7.10;99.90
13798;DHT22;6970;51.340;3.240;2024-01-06T15:20:35;7.10;99.90
13798;DHT22;6970;51.340;3.240;2024-01-06T15:23:04;7.20;99.90
13798;DHT22;6970;51.340;3.240;2024-01-06T15:25:35;7.10;99.90
13798;DHT22;6970;51.340;3.240;2024-01-06T15:28:04;7.20;99.90
13798;DHT22;6970;51.340;3.240;2024-01-06T15:30:32;7.20;99.90
13798;DHT22;6970;51.340;3.240;2024-01-06T15:33:03;7.20;99.90
13798;DHT22;6970;51.340;3.240;2024-01-06T15:35:31;7.10;99.90
13798;DHT22;6970;51.340;3.240;2024-01-06T15:38:01;7.10;99.90
13798;DHT22;6970;51.340;3.240;2024-01-06T15:40:28;7.00;99.90
13798;DHT22;6970;51.340;3.240;2024-01-06T15:42:55;7.00;99.90
13798;DHT22;6970;51.340;3.240;2024-01-06T15:45:22;6.90;99.90
13798;DHT22;6970;51.340;3.240;2024-01-06T15:47:53;6.90;99.90
13798;DHT22;6970;51.340;3.240;2024-01-06T15:50:20;6.90;99.90
13798;DHT22;6970;51.340;3.240;2024-01-06T15:52:49;6.90;99.90
13798;DHT22;6970;51.340;3.240;2024-01-06T15:55:19;6.80;99.90
13798;DHT22;6970;51.340;3.240;2024-01-06T15:57:48;6.80;99.90
13798;DHT22;6970;51.340;3.240;2024-01-06T16:00:21;6.80;99.90
13798;DHT22;6970;51.340;3.240;2024-01-06T16:02:51;6.80;99.90
13798;DHT22;6970;51.340;3.240;2024-01-06T16:05:19;6.70;99.90
13798;DHT22;6970;51.340;3.240;2024-01-06T16:07:50;6.70;99.90
13798;DHT22;6970;51.340;3.240;2024-01-06T16:10:28;6.70;99.90
13798;DHT22;6970;51.340;3.240;2024-01-06T16:12:59;6.70;99.90
13798;DHT22;6970;51.340;3.240;2024-01-06T16:15:27;6.70;99.90
13798;DHT22;6970;51.340;3.240;2024-01-06T16:17:57;6.70;99.90
13798;DHT22;6970;51.340;3.240;2024-01-06T16:20:28;6.70;99.90
13798;DHT22;6970;51.340;3.240;2024-01-06T16:22:58;6.70;99.90